createdAt,value
2023-04-13T00:00:23.844Z,1.90
2023-04-13T00:02:56.294Z,1.90
2023-04-13T00:05:24.634Z,1.90
2023-04-13T00:07:53.734Z,2.20
2023-04-13T00:10:23.858Z,2.03
2023-04-13T00:12:52.048Z,1.93
2023-04-13T00:15:19.918Z,2.00
2023-04-13T00:17:48.189Z,1.70
2023-04-13T00:20:17.822Z,1.60
2023-04-13T00:22:47.852Z,1.80
2023-04-13T00:25:16.814Z,1.80
2023-04-13T00:27:44.830Z,1.80
2023-04-13T00:30:15.655Z,1.80
2023-04-13T00:32:45.597Z,1.80
2023-04-13T00:35:19.384Z,1.63
2023-04-13T00:37:47.358Z,1.80
2023-04-13T00:40:18.018Z,1.80
2023-04-13T00:42:47.338Z,1.63
2023-04-13T00:45:18.155Z,1.60
2023-04-13T00:47:50.655Z,1.40
2023-04-13T00:50:21.316Z,1.60
2023-04-13T00:52:49.810Z,1.63
2023-04-13T00:55:21.639Z,1.60
2023-04-13T00:57:50.162Z,1.60
2023-04-13T01:00:19.240Z,1.77
2023-04-13T01:02:47.761Z,2.00
2023-04-13T01:05:16.839Z,1.70
2023-04-13T01:07:59.481Z,2.07
2023-04-13T01:10:35.772Z,2.20
2023-04-13T01:13:20.401Z,2.40
2023-04-13T01:16:03.669Z,2.30
2023-04-13T01:18:40.212Z,2.70
2023-04-13T01:21:17.239Z,2.90
2023-04-13T01:24:03.631Z,2.50
2023-04-13T01:26:43.881Z,2.42
2023-04-13T01:29:14.124Z,2.70
2023-04-13T01:31:43.271Z,2.63
2023-04-13T01:34:11.399Z,2.97
2023-04-13T01:36:49.898Z,2.90
2023-04-13T01:39:19.766Z,2.40
2023-04-13T01:41:49.107Z,2.80
2023-04-13T01:44:21.058Z,2.80
2023-04-13T01:47:01.894Z,2.37
2023-04-13T01:49:56.781Z,2.70
2023-04-13T01:52:35.707Z,2.77
2023-04-13T01:55:07.328Z,2.70
2023-04-13T01:57:40.894Z,2.63
2023-04-13T02:00:14.318Z,3.00
2023-04-13T02:02:45.387Z,3.47
2023-04-13T02:05:13.494Z,3.80
2023-04-13T02:07:44.667Z,3.37
2023-04-13T02:10:13.508Z,3.53
2023-04-13T02:12:41.685Z,3.57
2023-04-13T02:15:12.388Z,3.70
2023-04-13T02:17:41.188Z,3.40
2023-04-13T02:20:13.569Z,3.70
2023-04-13T02:22:41.592Z,3.33
2023-04-13T02:25:13.261Z,3.77
2023-04-13T02:27:41.977Z,3.77
2023-04-13T02:30:12.792Z,3.50
2023-04-13T02:32:41.780Z,3.33
2023-04-13T02:35:13.934Z,3.00
2023-04-13T02:37:41.894Z,3.03
2023-04-13T02:40:13.586Z,2.93
2023-04-13T02:42:42.091Z,2.70
2023-04-13T02:45:13.372Z,2.13
2023-04-13T02:47:42.678Z,2.60
2023-04-13T02:50:12.618Z,2.90
2023-04-13T02:52:46.812Z,2.35
2023-04-13T02:55:15.148Z,2.53
2023-04-13T02:57:54.457Z,2.40
2023-04-13T03:00:25.760Z,2.70
2023-04-13T03:02:59.328Z,2.83
2023-04-13T03:05:35.754Z,2.60
2023-04-13T03:08:05.375Z,2.77
2023-04-13T03:10:37.315Z,2.87
2023-04-13T03:13:07.383Z,2.90
2023-04-13T03:15:36.771Z,2.87
2023-04-13T03:18:05.164Z,3.30
2023-04-13T03:20:34.653Z,2.97
2023-04-13T03:23:04.463Z,3.00
2023-04-13T03:25:36.502Z,3.13
2023-04-13T03:28:05.397Z,3.43
2023-04-13T03:30:39.882Z,3.53
2023-04-13T03:33:07.655Z,3.63
2023-04-13T03:35:38.003Z,3.27
2023-04-13T03:38:11.489Z,3.20
2023-04-13T03:40:44.495Z,3.20
2023-04-13T03:43:12.590Z,3.20
2023-04-13T03:45:47.304Z,2.80
2023-04-13T03:48:17.438Z,3.30
2023-04-13T03:50:45.432Z,2.70
2023-04-13T03:53:15.728Z,3.50
2023-04-13T03:55:46.680Z,3.30
2023-04-13T03:58:14.885Z,3.47
2023-04-13T04:00:42.719Z,3.37
2023-04-13T04:03:24.300Z,3.10
2023-04-13T04:05:58.440Z,2.53
2023-04-13T04:08:28.989Z,2.80
2023-04-13T04:11:01.515Z,3.67
2023-04-13T04:13:31.202Z,3.53
2023-04-13T04:16:04.477Z,3.70
2023-04-13T04:18:36.139Z,4.10
2023-04-13T04:21:04.562Z,4.80
2023-04-13T04:23:34.555Z,4.50
2023-04-13T04:26:07.460Z,3.93
2023-04-13T04:28:45.828Z,4.67
2023-04-13T04:31:18.833Z,4.60
2023-04-13T04:33:52.380Z,5.30
2023-04-13T04:36:24.124Z,4.60
2023-04-13T04:39:02.111Z,4.50
2023-04-13T04:41:37.270Z,5.20
2023-04-13T04:44:08.756Z,7.30
2023-04-13T04:46:41.550Z,6.20
2023-04-13T04:49:14.685Z,5.33
2023-04-13T04:51:43.052Z,12.07
2023-04-13T04:54:16.717Z,6.87
2023-04-13T04:56:47.951Z,6.47
2023-04-13T04:59:20.778Z,5.00
2023-04-13T05:01:58.793Z,6.33
2023-04-13T05:04:27.965Z,9.30
2023-04-13T05:06:55.705Z,7.97
2023-04-13T05:09:26.642Z,7.00
2023-04-13T05:11:57.955Z,8.67
2023-04-13T05:14:25.834Z,12.00
2023-04-13T05:16:53.846Z,10.33
2023-04-13T05:19:42.929Z,16.77
2023-04-13T05:25:09.504Z,23.63
2023-04-13T05:27:37.973Z,17.30
2023-04-13T05:30:08.832Z,7.50
2023-04-13T05:32:39.462Z,10.47
2023-04-13T05:35:10.327Z,9.93
2023-04-13T05:37:39.873Z,14.23
2023-04-13T05:40:14.612Z,13.40
2023-04-13T05:42:43.579Z,15.40
2023-04-13T05:45:17.015Z,13.73
2023-04-13T05:47:59.570Z,8.87
2023-04-13T05:50:29.089Z,9.87
2023-04-13T05:52:59.965Z,11.93
2023-04-13T05:58:04.026Z,8.03
2023-04-13T06:00:32.704Z,8.17
2023-04-13T06:03:07.405Z,9.63
2023-04-13T06:05:37.480Z,15.83
2023-04-13T06:08:05.383Z,10.23
2023-04-13T06:10:33.245Z,14.40
2023-04-13T06:13:00.999Z,8.07
2023-04-13T06:15:28.918Z,10.50
2023-04-13T06:17:57.089Z,7.57
2023-04-13T06:20:24.968Z,10.63
2023-04-13T06:22:54.100Z,17.10
2023-04-13T06:25:23.180Z,14.40
2023-04-13T06:27:51.144Z,14.47
2023-04-13T06:30:20.849Z,19.23
2023-04-13T06:32:52.578Z,9.97
2023-04-13T06:35:24.084Z,10.63
2023-04-13T06:37:51.953Z,14.03
2023-04-13T06:40:27.692Z,7.17
2023-04-13T06:43:03.824Z,4.60
2023-04-13T06:45:42.380Z,5.37
2023-04-13T06:48:17.903Z,5.00
2023-04-13T06:50:47.637Z,9.07
2023-04-13T06:53:15.399Z,5.77
2023-04-13T06:55:45.184Z,5.50
2023-04-13T06:58:13.233Z,5.40
2023-04-13T07:00:41.386Z,5.50
2023-04-13T07:03:09.504Z,6.13
2023-04-13T07:05:38.961Z,4.27
2023-04-13T07:08:13.043Z,5.00
2023-04-13T07:10:44.715Z,4.80
2023-04-13T07:13:24.890Z,4.13
2023-04-13T07:15:52.819Z,4.90
2023-04-13T07:18:20.771Z,4.47
2023-04-13T07:20:50.184Z,4.10
2023-04-13T07:23:20.690Z,3.73
2023-04-13T07:25:49.994Z,3.87
2023-04-13T07:28:22.804Z,3.00
2023-04-13T07:30:52.846Z,2.90
2023-04-13T07:33:20.792Z,3.07
2023-04-13T07:35:54.620Z,2.90
2023-04-13T07:38:25.756Z,2.90
2023-04-13T07:40:55.420Z,2.70
2023-04-13T07:43:25.083Z,2.72
2023-04-13T07:45:54.364Z,2.57
2023-04-13T07:48:22.198Z,2.95
2023-04-13T07:50:50.123Z,2.30
2023-04-13T07:53:22.002Z,3.10
2023-04-13T07:55:49.931Z,4.00
2023-04-13T07:58:19.129Z,2.60
2023-04-13T08:00:49.247Z,3.30
2023-04-13T08:03:17.920Z,2.20
2023-04-13T08:05:50.189Z,2.53
2023-04-13T08:08:18.084Z,2.40
2023-04-13T08:10:46.883Z,2.83
2023-04-13T08:13:16.536Z,2.87
2023-04-13T08:15:46.477Z,2.87
2023-04-13T08:18:14.386Z,2.70
2023-04-13T08:20:42.545Z,4.00
2023-04-13T08:23:12.480Z,3.07
2023-04-13T08:25:41.721Z,2.30
2023-04-13T08:28:09.654Z,3.83
2023-04-13T08:30:37.852Z,3.50
2023-04-13T08:33:07.515Z,3.60
2023-04-13T08:35:39.148Z,3.50
2023-04-13T08:38:09.053Z,4.07
2023-04-13T08:40:40.364Z,4.47
2023-04-13T08:43:13.477Z,3.87
2023-04-13T08:45:44.488Z,3.43
2023-04-13T08:48:15.665Z,5.77
2023-04-13T08:50:46.079Z,4.90
2023-04-13T08:53:18.174Z,5.73
2023-04-13T08:55:50.305Z,4.73
2023-04-13T08:58:24.391Z,3.57
2023-04-13T09:00:53.024Z,4.47
2023-04-13T09:03:29.503Z,4.73
2023-04-13T09:06:03.851Z,8.10
2023-04-13T09:08:36.596Z,4.60
2023-04-13T09:11:09.088Z,3.67
2023-04-13T09:13:37.038Z,3.20
2023-04-13T09:16:06.428Z,2.80
2023-04-13T09:18:53.255Z,8.07
2023-04-13T09:21:22.375Z,8.77
2023-04-13T09:23:54.833Z,10.63
2023-04-13T09:26:22.899Z,15.60
2023-04-13T09:28:56.128Z,10.27
2023-04-13T09:31:24.435Z,13.80
2023-04-13T09:33:53.662Z,12.97
2023-04-13T09:36:22.655Z,6.00
2023-04-13T09:38:53.204Z,6.97
2023-04-13T09:41:32.601Z,8.83
2023-04-13T09:44:01.366Z,7.87
2023-04-13T09:46:29.573Z,8.23
2023-04-13T09:49:04.776Z,10.30
2023-04-13T09:51:37.644Z,8.20
2023-04-13T09:54:06.474Z,9.77
2023-04-13T09:56:46.909Z,5.83
2023-04-13T09:59:14.945Z,5.03
2023-04-13T10:01:43.703Z,6.10
2023-04-13T10:04:13.512Z,5.73
2023-04-13T10:06:46.926Z,5.13
2023-04-13T10:09:15.683Z,5.30
2023-04-13T10:11:46.746Z,4.50
2023-04-13T10:14:19.743Z,4.77
2023-04-13T10:17:12.740Z,5.07
2023-04-13T10:19:48.365Z,4.90
2023-04-13T10:24:45.919Z,4.70
2023-04-13T10:27:16.904Z,4.73
2023-04-13T10:29:47.156Z,4.73
2023-04-13T10:32:23.074Z,5.50
2023-04-13T10:34:54.120Z,4.67
2023-04-13T10:37:24.412Z,4.80
2023-04-13T10:40:05.555Z,4.00
2023-04-13T10:42:51.768Z,4.93
2023-04-13T10:45:26.685Z,4.33
2023-04-13T10:47:56.259Z,5.27
2023-04-13T10:50:29.266Z,4.40
2023-04-13T10:53:04.094Z,4.55
2023-04-13T10:55:32.757Z,4.32
2023-04-13T10:58:13.773Z,4.63
2023-04-13T11:00:47.101Z,5.20
2023-04-13T11:03:17.248Z,3.90
2023-04-13T11:05:48.393Z,4.50
2023-04-13T11:08:20.835Z,2.47
2023-04-13T11:10:54.297Z,2.80
2023-04-13T11:13:25.402Z,3.00
2023-04-13T11:16:01.982Z,2.60
2023-04-13T11:18:29.880Z,3.90
2023-04-13T11:20:59.210Z,3.20
2023-04-13T11:23:27.523Z,3.87
2023-04-13T11:25:59.785Z,4.20
2023-04-13T11:28:39.334Z,5.00
2023-04-13T11:31:11.541Z,5.07
2023-04-13T11:33:40.992Z,5.00
2023-04-13T11:36:11.778Z,4.30
2023-04-13T11:38:40.895Z,5.47
2023-04-13T11:41:16.432Z,5.43
2023-04-13T11:43:48.807Z,5.53
2023-04-13T11:46:24.832Z,4.87
2023-04-13T11:48:53.466Z,5.37
2023-04-13T11:51:24.404Z,5.07
2023-04-13T11:53:53.228Z,4.57
2023-04-13T11:56:21.677Z,4.90
2023-04-13T11:58:51.527Z,4.23
2023-04-13T12:01:26.146Z,3.77
2023-04-13T12:04:12.847Z,4.37
2023-04-13T12:06:50.059Z,3.53
2023-04-13T12:09:21.273Z,2.90
2023-04-13T12:12:07.897Z,3.70
2023-04-13T12:17:37.638Z,3.33
2023-04-13T12:20:04.784Z,5.10
2023-04-13T12:22:50.796Z,3.30
2023-04-13T12:25:24.388Z,4.20
2023-04-13T12:27:53.805Z,5.17
2023-04-13T12:30:22.898Z,3.23
2023-04-13T12:32:53.517Z,3.57
2023-04-13T12:35:21.764Z,3.67
2023-04-13T12:37:52.404Z,3.40
2023-04-13T12:40:20.377Z,3.40
2023-04-13T12:42:49.197Z,3.30
2023-04-13T12:45:17.441Z,4.00
2023-04-13T12:47:45.274Z,3.58
2023-04-13T12:50:13.562Z,3.22
2023-04-13T12:52:43.099Z,3.65
2023-04-13T12:55:12.338Z,3.37
2023-04-13T12:57:40.192Z,4.00
2023-04-13T13:00:10.856Z,3.90
2023-04-13T13:02:39.136Z,3.80
2023-04-13T13:05:09.300Z,3.50
2023-04-13T13:07:37.265Z,3.37
2023-04-13T13:10:14.904Z,3.28
2023-04-13T13:12:55.861Z,2.70
2023-04-13T13:15:23.730Z,2.70
2023-04-13T13:17:51.515Z,3.25
2023-04-13T13:20:19.362Z,2.95
2023-04-13T13:22:47.405Z,2.58
2023-04-13T13:25:16.252Z,2.72
2023-04-13T13:30:16.668Z,2.80
2023-04-13T13:32:44.780Z,2.70
2023-04-13T13:35:14.860Z,2.72
2023-04-13T13:37:42.728Z,2.45
2023-04-13T13:40:13.290Z,2.22
2023-04-13T13:42:51.430Z,2.33
2023-04-13T13:45:22.351Z,2.22
2023-04-13T13:47:54.442Z,2.33
2023-04-13T13:50:30.488Z,2.10
2023-04-13T13:53:04.475Z,1.95
2023-04-13T13:55:41.370Z,1.67
2023-04-13T13:58:09.180Z,1.80
2023-04-13T14:00:38.332Z,1.58
2023-04-13T14:03:06.593Z,1.77
2023-04-13T14:05:34.529Z,1.75
2023-04-13T14:08:02.525Z,1.92
2023-04-13T14:10:30.521Z,2.10
2023-04-13T14:12:59.540Z,1.80
2023-04-13T14:15:27.674Z,2.05
2023-04-13T14:18:09.735Z,2.17
2023-04-13T14:20:39.735Z,2.05
2023-04-13T14:23:09.330Z,2.72
2023-04-13T14:25:41.531Z,2.80
2023-04-13T14:28:09.621Z,2.33
2023-04-13T14:30:38.734Z,2.40
2023-04-13T14:33:08.255Z,2.22
2023-04-13T14:35:36.416Z,2.60
2023-04-13T14:38:04.146Z,2.33
2023-04-13T14:40:32.587Z,2.50
2023-04-13T14:43:00.765Z,2.90
2023-04-13T14:45:28.600Z,2.90
2023-04-13T14:47:56.472Z,2.65
2023-04-13T14:50:25.893Z,3.03
2023-04-13T14:52:53.651Z,2.53
2023-04-13T14:55:22.702Z,2.50
2023-04-13T14:57:51.349Z,2.35
2023-04-13T15:00:26.277Z,2.47
2023-04-13T15:02:55.327Z,1.70
2023-04-13T15:05:25.141Z,1.75
2023-04-13T15:07:53.003Z,1.92
2023-04-13T15:10:21.360Z,1.98
2023-04-13T15:12:49.240Z,1.98
2023-04-13T15:15:17.393Z,1.83
2023-04-13T15:17:45.563Z,2.00
2023-04-13T15:20:13.298Z,1.85
2023-04-13T15:22:42.561Z,1.73
2023-04-13T15:25:10.945Z,1.80
2023-04-13T15:27:38.730Z,1.50
2023-04-13T15:30:09.976Z,1.70
2023-04-13T15:32:37.892Z,1.70
2023-04-13T15:35:06.393Z,1.95
2023-04-13T15:37:34.279Z,1.55
2023-04-13T15:40:07.659Z,1.67
2023-04-13T15:42:36.108Z,1.65
2023-04-13T15:45:05.412Z,1.50
2023-04-13T15:47:33.259Z,1.85
2023-04-13T15:50:01.214Z,1.42
2023-04-13T15:52:29.288Z,1.35
2023-04-13T15:54:57.214Z,1.80
2023-04-13T15:57:26.603Z,1.67
2023-04-13T15:59:56.542Z,1.50
2023-04-13T16:02:24.622Z,1.85
2023-04-13T16:04:53.844Z,1.08
2023-04-13T16:07:21.801Z,1.27
2023-04-13T16:09:56.274Z,1.30
2023-04-13T16:12:31.914Z,1.50
2023-04-13T16:15:00.250Z,1.58
2023-04-13T16:17:32.252Z,1.40
2023-04-13T16:20:13.997Z,1.60
2023-04-13T16:22:46.920Z,1.13
2023-04-13T16:25:15.966Z,1.50
2023-04-13T16:27:48.275Z,1.30
2023-04-13T16:30:20.807Z,1.50
2023-04-13T16:32:50.503Z,1.38
2023-04-13T16:35:18.673Z,1.63
2023-04-13T16:37:46.649Z,1.30
2023-04-13T16:40:15.244Z,1.73
2023-04-13T16:42:50.379Z,1.40
2023-04-13T16:45:22.566Z,1.67
2023-04-13T16:47:53.091Z,1.17
2023-04-13T16:50:21.198Z,1.40
2023-04-13T16:52:48.995Z,1.80
2023-04-13T16:55:17.592Z,1.48
2023-04-13T16:57:45.626Z,1.27
2023-04-13T17:00:16.122Z,1.48
2023-04-13T17:02:44.282Z,1.45
2023-04-13T17:05:13.368Z,1.42
2023-04-13T17:07:43.684Z,1.30
2023-04-13T17:10:14.214Z,1.65
2023-04-13T17:12:42.227Z,2.07
2023-04-13T17:15:10.662Z,1.52
2023-04-13T17:17:39.991Z,1.63
2023-04-13T17:20:09.258Z,1.40
2023-04-13T17:22:37.846Z,1.65
2023-04-13T17:25:07.100Z,1.63
2023-04-13T17:27:34.915Z,1.92
2023-04-13T17:30:03.602Z,1.50
2023-04-13T17:32:33.174Z,1.57
2023-04-13T17:35:02.803Z,1.70
2023-04-13T17:37:31.036Z,1.97
2023-04-13T17:39:59.953Z,1.40
2023-04-13T17:42:28.358Z,2.00
2023-04-13T17:44:56.195Z,2.07
2023-04-13T17:47:24.998Z,1.50
2023-04-13T17:49:53.334Z,1.50
2023-04-13T17:52:22.484Z,1.77
2023-04-13T17:54:50.225Z,1.67
2023-04-13T17:57:18.118Z,1.70
2023-04-13T17:59:47.040Z,1.73
2023-04-13T18:02:14.990Z,1.70
2023-04-13T18:04:42.837Z,1.60
2023-04-13T18:07:10.930Z,1.40
2023-04-13T18:09:40.237Z,1.40
2023-04-13T18:12:08.106Z,1.50
2023-04-13T18:14:36.242Z,1.83
2023-04-13T18:17:04.742Z,1.60
2023-04-13T18:19:32.674Z,2.03
2023-04-13T18:22:00.845Z,1.60
2023-04-13T18:24:28.629Z,1.50
2023-04-13T18:26:57.744Z,1.50
2023-04-13T18:29:25.661Z,1.60
2023-04-13T18:31:53.504Z,2.00
2023-04-13T18:34:21.609Z,3.57
2023-04-13T18:36:49.483Z,5.10
2023-04-13T18:39:17.416Z,5.20
2023-04-13T18:41:45.958Z,3.70
2023-04-13T18:44:15.367Z,2.80
2023-04-13T18:46:43.203Z,3.23
2023-04-13T18:49:11.076Z,3.37
2023-04-13T18:51:38.836Z,3.90
2023-04-13T18:54:06.724Z,3.93
2023-04-13T18:56:34.525Z,3.13
2023-04-13T18:59:02.283Z,4.80
2023-04-13T19:01:31.910Z,13.13
2023-04-13T19:04:00.283Z,20.27
2023-04-13T19:06:28.344Z,25.10
2023-04-13T19:08:56.258Z,17.33
2023-04-13T19:11:27.288Z,10.10
2023-04-13T19:13:55.219Z,5.83
2023-04-13T19:16:23.605Z,6.33
2023-04-13T19:18:52.943Z,7.70
2023-04-13T19:21:23.798Z,6.40
2023-04-13T19:23:51.807Z,5.73
2023-04-13T19:26:19.663Z,6.00
2023-04-13T19:28:48.194Z,5.47
2023-04-13T19:31:16.758Z,4.83
2023-04-13T19:33:46.175Z,4.50
2023-04-13T19:36:15.662Z,4.37
2023-04-13T19:38:45.003Z,5.97
2023-04-13T19:41:13.477Z,5.40
2023-04-13T19:43:41.262Z,5.80
2023-04-13T19:46:09.218Z,4.93
2023-04-13T19:48:37.406Z,4.83
2023-04-13T19:51:05.287Z,4.23
2023-04-13T19:53:36.198Z,4.57
2023-04-13T19:56:05.476Z,4.93
2023-04-13T19:58:33.633Z,4.77
2023-04-13T20:01:02.031Z,4.70
2023-04-13T20:03:31.632Z,5.27
2023-04-13T20:05:59.649Z,4.10
2023-04-13T20:08:27.466Z,4.93
2023-04-13T20:10:59.765Z,5.50
2023-04-13T20:13:28.014Z,5.27
2023-04-13T20:15:55.890Z,5.43
2023-04-13T20:18:23.700Z,5.63
2023-04-13T20:20:52.379Z,4.90
2023-04-13T20:23:20.451Z,4.77
2023-04-13T20:25:48.308Z,4.33
2023-04-13T20:28:17.766Z,4.30
2023-04-13T20:30:45.641Z,5.70
2023-04-13T20:33:13.529Z,4.43
2023-04-13T20:35:41.943Z,4.30
2023-04-13T20:38:10.093Z,5.03
2023-04-13T20:40:38.051Z,5.83
2023-04-13T20:43:06.344Z,5.10
2023-04-13T20:45:36.259Z,5.00
2023-04-13T20:50:36.379Z,4.20
2023-04-13T20:53:05.306Z,4.07
2023-04-13T20:55:33.363Z,3.17
2023-04-13T20:58:01.233Z,3.60
2023-04-13T21:00:29.317Z,3.10
2023-04-13T21:02:58.729Z,3.90
2023-04-13T21:05:26.975Z,3.40
2023-04-13T21:07:56.968Z,3.60
2023-04-13T21:10:25.516Z,3.90
2023-04-13T21:12:53.328Z,4.03
2023-04-13T21:15:21.271Z,3.03
2023-04-13T21:17:49.241Z,3.50
2023-04-13T21:20:18.635Z,3.67
2023-04-13T21:22:46.464Z,3.63
2023-04-13T21:25:14.317Z,3.30
2023-04-13T21:27:42.078Z,3.27
2023-04-13T21:30:10.882Z,3.77
2023-04-13T21:32:38.898Z,3.70
2023-04-13T21:35:08.552Z,4.10
2023-04-13T21:37:37.666Z,4.20
2023-04-13T21:40:07.090Z,4.27
2023-04-13T21:42:34.911Z,5.17
2023-04-13T21:45:03.576Z,5.50
2023-04-13T21:47:31.843Z,5.17
2023-04-13T21:49:59.624Z,5.13
2023-04-13T21:52:28.939Z,5.50
2023-04-13T21:54:59.776Z,5.07
2023-04-13T21:57:27.777Z,4.83
2023-04-13T21:59:56.237Z,5.27
2023-04-13T22:02:24.909Z,6.47
2023-04-13T22:04:52.776Z,7.60
2023-04-13T22:07:28.429Z,7.47
2023-04-13T22:10:05.765Z,7.00
2023-04-13T22:12:35.686Z,7.20
2023-04-13T22:15:04.132Z,6.30
2023-04-13T22:17:32.226Z,5.90
2023-04-13T22:20:00.573Z,5.87
2023-04-13T22:22:30.819Z,5.47
2023-04-13T22:24:58.671Z,5.00
2023-04-13T22:27:27.856Z,4.30
2023-04-13T22:29:55.745Z,4.47
2023-04-13T22:32:23.765Z,4.27
2023-04-13T22:34:51.529Z,4.13
2023-04-13T22:37:19.357Z,4.33
2023-04-13T22:39:47.112Z,4.43
2023-04-13T22:42:16.808Z,4.33
2023-04-13T22:44:45.925Z,4.00
2023-04-13T22:47:13.757Z,4.93
2023-04-13T22:49:41.464Z,4.50
2023-04-13T22:52:09.247Z,4.83
2023-04-13T22:54:37.141Z,5.27
2023-04-13T22:57:05.399Z,5.60
2023-04-13T22:59:33.337Z,4.63
2023-04-13T23:02:03.753Z,5.23
2023-04-13T23:04:31.875Z,6.37
2023-04-13T23:06:59.878Z,5.23
2023-04-13T23:09:27.862Z,6.33
2023-04-13T23:11:56.125Z,7.63
2023-04-13T23:14:24.423Z,7.87
2023-04-13T23:16:52.232Z,8.30
2023-04-13T23:19:21.519Z,8.50
2023-04-13T23:21:49.223Z,6.93
2023-04-13T23:24:17.140Z,6.57
2023-04-13T23:26:44.879Z,6.87
2023-04-13T23:29:12.777Z,6.67
2023-04-13T23:31:41.053Z,6.30
2023-04-13T23:34:08.891Z,6.13
2023-04-13T23:36:38.138Z,5.57
2023-04-13T23:39:06.176Z,5.50
2023-04-13T23:41:33.960Z,5.03
2023-04-13T23:44:02.004Z,4.57
2023-04-13T23:46:30.391Z,5.40
2023-04-13T23:48:58.407Z,5.10
2023-04-13T23:51:26.353Z,5.33
2023-04-13T23:53:55.580Z,5.73
2023-04-13T23:56:23.330Z,5.33
2023-04-13T23:58:51.195Z,5.60
